La Puebla, New Mexico
Current Conditions -  °F | °C
As of 12:35 PM on Saturday 25 Oct 2014 (Local Time) from KLAM Reporting Station
Clear Clear  
Wind Chill: 67°   Ceiling: Unl
Heat Index: 67°   Visibility: 10mi
Dew Point: 23°   Wind: 7mph
Humidity: 19%   Direction: 160°SSE
Pressure: 30.38"   Gusts: NA
Location:  35.9775°N, 106.158°W
Report Text: KLAM 251835Z AUTO 16006KT 10SM CLR 20/M05 A3038 RMK AO2 T01971048
Loading
Personal Weather Stations






























Interactive Weather Map
Tropical Storm Tracking
New forecast layout! Learn more

10-Day Weather Forecast

Advertisements
Track Severe Weather on mobile